createdAt,value
2023-02-16T00:01:26.205Z,11.00
2023-02-16T00:03:56.174Z,10.90
2023-02-16T00:06:25.738Z,11.00
2023-02-16T00:08:56.281Z,10.90
2023-02-16T00:11:49.856Z,10.90
2023-02-16T00:14:22.559Z,10.90
2023-02-16T00:16:51.408Z,10.90
2023-02-16T00:19:24.545Z,10.80
2023-02-16T00:21:56.116Z,10.80
2023-02-16T00:24:26.348Z,10.80
2023-02-16T00:26:56.578Z,10.80
2023-02-16T00:29:29.182Z,10.80
2023-02-16T00:32:00.801Z,10.80
2023-02-16T00:34:33.821Z,10.70
2023-02-16T00:37:04.801Z,10.80
2023-02-16T00:39:33.925Z,10.70
2023-02-16T00:42:06.673Z,10.80
2023-02-16T00:44:38.481Z,10.80
2023-02-16T00:47:20.342Z,10.70
2023-02-16T00:49:50.280Z,10.70
2023-02-16T00:52:33.611Z,10.70
2023-02-16T00:55:05.563Z,10.70
2023-02-16T00:57:40.428Z,10.60
2023-02-16T01:00:16.775Z,10.60
2023-02-16T01:02:49.051Z,10.60
2023-02-16T01:05:18.151Z,10.60
2023-02-16T01:08:05.693Z,10.60
2023-02-16T01:11:06.210Z,10.60
2023-02-16T01:13:42.921Z,10.50
2023-02-16T01:16:15.399Z,10.60
2023-02-16T01:18:44.351Z,10.50
2023-02-16T01:21:13.971Z,10.50
2023-02-16T01:23:42.841Z,10.50
2023-02-16T01:26:16.165Z,10.50
2023-02-16T01:28:46.735Z,10.50
2023-02-16T01:31:18.688Z,10.40
2023-02-16T01:33:48.353Z,10.40
2023-02-16T01:36:25.841Z,10.40
2023-02-16T01:38:54.331Z,10.40
2023-02-16T01:41:36.580Z,10.40
2023-02-16T01:44:12.846Z,10.40
2023-02-16T01:46:48.961Z,10.40
2023-02-16T01:49:20.489Z,10.30
2023-02-16T01:51:58.760Z,10.30
2023-02-16T01:54:41.735Z,10.30
2023-02-16T01:57:26.752Z,10.30
2023-02-16T02:00:16.299Z,10.30
2023-02-16T02:02:50.544Z,10.30
2023-02-16T02:05:36.633Z,10.30
2023-02-16T02:08:23.048Z,10.20
2023-02-16T02:11:06.391Z,10.20
2023-02-16T02:13:44.158Z,10.20
2023-02-16T02:16:17.941Z,10.20
2023-02-16T02:18:48.147Z,10.20
2023-02-16T02:22:08.511Z,10.20
2023-02-16T02:25:35.691Z,10.10
2023-02-16T02:28:12.174Z,10.10
2023-02-16T02:30:49.008Z,10.10
2023-02-16T02:33:44.123Z,10.10
2023-02-16T02:36:26.155Z,10.10
2023-02-16T02:39:06.962Z,10.10
2023-02-16T02:42:01.544Z,10.10
2023-02-16T02:44:35.840Z,10.00
2023-02-16T02:47:04.399Z,10.00
2023-02-16T02:49:32.926Z,10.00
2023-02-16T02:52:01.785Z,10.00
2023-02-16T02:54:51.445Z,10.00
2023-02-16T02:57:43.118Z,10.00
2023-02-16T03:00:35.479Z,10.00
2023-02-16T03:03:09.569Z,10.00
2023-02-16T03:05:43.067Z,10.00
2023-02-16T03:08:15.270Z,9.90
2023-02-16T03:11:05.557Z,9.90
2023-02-16T03:13:38.234Z,9.90
2023-02-16T03:16:13.883Z,9.90
2023-02-16T03:19:02.567Z,9.90
2023-02-16T03:21:48.541Z,9.90
2023-02-16T03:24:40.531Z,9.80
2023-02-16T03:27:28.274Z,9.90
2023-02-16T03:29:58.114Z,9.80
2023-02-16T03:32:28.178Z,9.80
2023-02-16T03:34:56.554Z,9.80
2023-02-16T03:37:25.225Z,9.80
2023-02-16T03:40:11.327Z,9.80
2023-02-16T03:42:40.402Z,9.80
2023-02-16T03:45:09.934Z,9.70
2023-02-16T03:47:39.788Z,9.80
2023-02-16T03:50:09.606Z,9.70
2023-02-16T03:52:38.109Z,9.70
2023-02-16T03:55:07.307Z,9.70
2023-02-16T03:57:35.932Z,9.70
2023-02-16T04:00:04.565Z,9.70
2023-02-16T04:02:42.948Z,9.70
2023-02-16T04:05:11.271Z,9.70
2023-02-16T04:07:39.550Z,9.70
2023-02-16T04:10:08.596Z,9.70
2023-02-16T04:12:38.932Z,9.70
2023-02-16T04:15:09.989Z,9.70
2023-02-16T04:17:38.645Z,9.60
2023-02-16T04:20:12.336Z,9.70
2023-02-16T04:22:41.027Z,9.60
2023-02-16T04:25:09.650Z,9.60
2023-02-16T04:27:39.642Z,9.70
2023-02-16T04:30:11.919Z,9.60
2023-02-16T04:32:40.776Z,9.60
2023-02-16T04:35:11.212Z,9.60
2023-02-16T04:37:39.830Z,9.60
2023-02-16T04:40:13.513Z,9.60
2023-02-16T04:42:42.265Z,9.60
2023-02-16T04:45:11.664Z,9.60
2023-02-16T04:47:40.057Z,9.60
2023-02-16T04:50:11.107Z,9.60
2023-02-16T04:52:40.376Z,9.50
2023-02-16T04:55:10.777Z,9.60
2023-02-16T04:57:39.458Z,9.50
2023-02-16T05:00:11.731Z,9.50
2023-02-16T05:02:41.949Z,9.50
2023-02-16T05:05:11.791Z,9.50
2023-02-16T05:07:40.646Z,9.50
2023-02-16T05:10:10.183Z,9.50
2023-02-16T05:12:56.205Z,9.50
2023-02-16T05:15:24.944Z,9.50
2023-02-16T05:17:53.428Z,9.40
2023-02-16T05:20:44.421Z,9.40
2023-02-16T05:23:12.954Z,9.40
2023-02-16T05:25:41.383Z,9.40
2023-02-16T05:28:09.794Z,9.40
2023-02-16T05:30:38.328Z,9.40
2023-02-16T05:33:06.725Z,9.40
2023-02-16T05:35:36.766Z,9.40
2023-02-16T05:38:05.256Z,9.40
2023-02-16T05:40:33.889Z,9.40
2023-02-16T05:43:02.276Z,9.30
2023-02-16T05:45:30.714Z,9.40
2023-02-16T05:47:59.070Z,9.40
2023-02-16T05:50:27.390Z,9.30
2023-02-16T05:53:02.066Z,9.40
2023-02-16T05:55:30.533Z,9.40
2023-02-16T05:57:58.934Z,9.30
2023-02-16T06:00:27.637Z,9.30
2023-02-16T06:02:56.119Z,9.30
2023-02-16T06:05:24.557Z,9.30
2023-02-16T06:07:53.087Z,9.30
2023-02-16T06:10:22.965Z,9.30
2023-02-16T06:12:51.308Z,9.30
2023-02-16T06:15:19.715Z,9.30
2023-02-16T06:17:48.164Z,9.30
2023-02-16T06:20:16.675Z,9.30
2023-02-16T06:22:45.042Z,9.30
2023-02-16T06:25:13.473Z,9.30
2023-02-16T06:27:43.348Z,9.20
2023-02-16T06:30:12.645Z,9.20
2023-02-16T06:32:41.133Z,9.20
2023-02-16T06:35:10.114Z,9.30
2023-02-16T06:37:38.615Z,9.20
2023-02-16T06:40:09.933Z,9.20
2023-02-16T06:42:38.828Z,9.20
2023-02-16T06:45:10.329Z,9.20
2023-02-16T06:47:38.983Z,9.20
2023-02-16T06:50:14.390Z,9.20
2023-02-16T06:52:42.961Z,9.20
2023-02-16T06:55:11.527Z,9.20
2023-02-16T06:57:39.974Z,9.20
2023-02-16T07:00:11.660Z,9.30
2023-02-16T07:02:40.084Z,9.20
2023-02-16T07:05:09.138Z,9.30
2023-02-16T07:07:37.657Z,9.30
2023-02-16T07:10:07.602Z,9.30
2023-02-16T07:12:36.039Z,9.30
2023-02-16T07:15:05.510Z,9.30
2023-02-16T07:17:35.398Z,9.30
2023-02-16T07:20:05.627Z,9.40
2023-02-16T07:22:34.418Z,9.40
2023-02-16T07:25:03.195Z,9.40
2023-02-16T07:27:31.637Z,9.40
2023-02-16T07:30:00.066Z,9.40
2023-02-16T07:32:31.948Z,9.40
2023-02-16T07:35:01.781Z,9.50
2023-02-16T07:37:30.231Z,9.50
2023-02-16T07:39:58.781Z,9.50
2023-02-16T07:42:31.112Z,9.50
2023-02-16T07:44:59.648Z,9.50
2023-02-16T07:47:28.177Z,9.50
2023-02-16T07:49:56.562Z,9.60
2023-02-16T07:52:30.961Z,9.60
2023-02-16T07:54:59.853Z,9.60
2023-02-16T07:57:29.656Z,9.60
2023-02-16T07:59:58.134Z,9.60
2023-02-16T08:02:27.588Z,9.60
2023-02-16T08:04:56.099Z,9.70
2023-02-16T08:07:26.035Z,9.70
2023-02-16T08:09:54.728Z,9.70
2023-02-16T08:12:23.261Z,9.70
2023-02-16T08:14:51.880Z,9.70
2023-02-16T08:17:20.477Z,9.80
2023-02-16T08:19:49.023Z,9.80
2023-02-16T08:22:19.296Z,9.80
2023-02-16T08:24:49.200Z,9.80
2023-02-16T08:27:17.869Z,9.80
2023-02-16T08:29:46.302Z,9.80
2023-02-16T08:32:15.448Z,9.90
2023-02-16T08:34:43.853Z,9.90
2023-02-16T08:37:14.173Z,9.90
2023-02-16T08:39:42.922Z,10.00
2023-02-16T08:42:14.239Z,10.00
2023-02-16T08:44:44.605Z,10.00
2023-02-16T08:47:13.937Z,10.00
2023-02-16T08:49:44.211Z,10.10
2023-02-16T08:52:13.104Z,10.10
2023-02-16T08:54:41.885Z,10.20
2023-02-16T08:57:11.918Z,10.20
2023-02-16T08:59:40.560Z,10.20
2023-02-16T09:02:09.036Z,10.20
2023-02-16T09:04:37.891Z,10.30
2023-02-16T09:07:06.516Z,10.30
2023-02-16T09:09:35.031Z,10.30
2023-02-16T09:12:03.679Z,10.40
2023-02-16T09:14:33.477Z,10.40
2023-02-16T09:17:02.025Z,10.40
2023-02-16T09:19:30.801Z,10.50
2023-02-16T09:21:59.201Z,10.50
2023-02-16T09:24:27.967Z,10.60
2023-02-16T09:26:56.907Z,10.60
2023-02-16T09:29:26.237Z,10.60
2023-02-16T09:31:56.181Z,10.70
2023-02-16T09:34:26.842Z,10.70
2023-02-16T09:36:56.558Z,10.70
2023-02-16T09:39:25.042Z,10.70
2023-02-16T09:42:15.929Z,10.80
2023-02-16T09:44:55.938Z,10.80
2023-02-16T09:47:31.058Z,10.90
2023-02-16T09:50:01.881Z,10.90
2023-02-16T09:52:37.423Z,11.00
2023-02-16T09:55:09.828Z,10.90
2023-02-16T09:57:58.036Z,11.00
2023-02-16T10:00:42.244Z,11.00
2023-02-16T10:03:28.855Z,11.10
2023-02-16T10:06:06.636Z,11.10
2023-02-16T10:08:40.201Z,11.10
2023-02-16T10:11:29.963Z,11.10
2023-02-16T10:14:04.074Z,11.20
2023-02-16T10:16:38.926Z,11.20
2023-02-16T10:19:20.083Z,11.20
2023-02-16T10:21:54.960Z,11.30
2023-02-16T10:24:23.555Z,11.30
2023-02-16T10:27:02.456Z,11.30
2023-02-16T10:29:30.956Z,11.30
2023-02-16T10:32:14.873Z,11.30
2023-02-16T10:34:52.046Z,11.40
2023-02-16T10:37:40.830Z,11.40
2023-02-16T10:40:25.728Z,11.40
2023-02-16T10:43:02.016Z,11.40
2023-02-16T10:45:37.934Z,11.40
2023-02-16T10:48:06.544Z,11.40
2023-02-16T10:50:43.038Z,11.40
2023-02-16T10:53:18.239Z,11.40
2023-02-16T10:55:46.947Z,11.40
2023-02-16T10:58:23.632Z,11.40
2023-02-16T11:00:59.698Z,11.50
2023-02-16T11:03:33.434Z,11.50
2023-02-16T11:06:15.567Z,11.50
2023-02-16T11:08:50.284Z,11.50
2023-02-16T11:11:22.743Z,11.50
2023-02-16T11:13:59.379Z,11.50
2023-02-16T11:16:28.616Z,11.50
2023-02-16T11:19:00.609Z,11.60
2023-02-16T11:24:36.888Z,11.60
2023-02-16T11:27:16.258Z,11.60
2023-02-16T11:29:44.743Z,11.70
2023-02-16T11:32:15.843Z,11.70
2023-02-16T11:34:48.196Z,11.70
2023-02-16T11:37:25.608Z,11.80
2023-02-16T11:39:58.205Z,11.80
2023-02-16T11:42:34.895Z,11.80
2023-02-16T11:45:06.403Z,11.80
2023-02-16T11:47:37.634Z,11.90
2023-02-16T11:50:23.225Z,11.90
2023-02-16T11:52:54.914Z,12.00
2023-02-16T11:55:32.768Z,12.00
2023-02-16T11:58:17.667Z,12.00
2023-02-16T12:00:59.625Z,12.10
2023-02-16T12:03:59.738Z,12.10
2023-02-16T12:06:54.678Z,12.10
2023-02-16T12:09:33.624Z,12.10
2023-02-16T12:12:13.472Z,12.10
2023-02-16T12:14:59.029Z,12.10
2023-02-16T12:17:46.053Z,12.10
2023-02-16T12:20:33.047Z,12.10
2023-02-16T12:23:17.208Z,12.10
2023-02-16T12:25:59.088Z,12.10
2023-02-16T12:28:38.972Z,12.10
2023-02-16T12:31:22.116Z,12.10
2023-02-16T12:33:59.401Z,12.10
2023-02-16T12:36:55.141Z,12.10
2023-02-16T12:39:32.697Z,12.00
2023-02-16T12:42:33.212Z,12.00
2023-02-16T12:45:10.868Z,12.00
2023-02-16T12:47:44.761Z,12.00
2023-02-16T12:50:21.554Z,12.00
2023-02-16T12:52:54.644Z,12.00
2023-02-16T12:55:29.319Z,12.00
2023-02-16T12:58:05.359Z,12.00
2023-02-16T13:00:43.656Z,12.00
2023-02-16T13:03:27.304Z,12.00
2023-02-16T13:06:09.301Z,12.00
2023-02-16T13:08:45.419Z,12.10
2023-02-16T13:11:21.733Z,12.10
2023-02-16T13:13:53.444Z,12.10
2023-02-16T13:16:34.957Z,12.10
2023-02-16T13:19:03.521Z,12.20
2023-02-16T13:22:02.147Z,12.20
2023-02-16T13:24:49.227Z,12.20
2023-02-16T13:27:32.252Z,12.30
2023-02-16T13:30:56.731Z,12.20
2023-02-16T13:33:52.777Z,12.30
2023-02-16T13:36:48.681Z,12.30
2023-02-16T13:40:24.633Z,12.30
2023-02-16T13:43:12.754Z,12.30
2023-02-16T13:45:44.635Z,12.40
2023-02-16T13:48:24.597Z,12.30
2023-02-16T13:51:05.206Z,12.40
2023-02-16T13:53:38.598Z,12.40
2023-02-16T13:56:23.218Z,12.40
2023-02-16T13:58:53.477Z,12.40
2023-02-16T14:01:43.012Z,12.40
2023-02-16T14:04:35.778Z,12.40
2023-02-16T14:07:35.957Z,12.40
2023-02-16T14:10:05.973Z,12.50
2023-02-16T14:12:40.653Z,12.50
2023-02-16T14:15:20.951Z,12.50
2023-02-16T14:17:52.514Z,12.50
2023-02-16T14:20:31.503Z,12.50
2023-02-16T14:23:01.618Z,12.50
2023-02-16T14:25:38.922Z,12.50
2023-02-16T14:28:43.998Z,12.50
2023-02-16T14:31:16.626Z,12.50
2023-02-16T14:33:50.667Z,12.50
2023-02-16T14:36:21.688Z,12.50
2023-02-16T14:38:53.241Z,12.50
2023-02-16T14:41:29.657Z,12.50
2023-02-16T14:44:29.476Z,12.50
2023-02-16T14:47:12.991Z,12.50
2023-02-16T14:50:28.643Z,12.50
2023-02-16T14:53:45.572Z,12.50
2023-02-16T14:56:43.747Z,12.50
2023-02-16T14:59:29.831Z,12.50
2023-02-16T15:01:58.514Z,12.50
2023-02-16T15:04:31.851Z,12.50
2023-02-16T15:07:04.682Z,12.40
2023-02-16T15:09:35.531Z,12.50
2023-02-16T15:12:23.283Z,12.50
2023-02-16T15:14:55.655Z,12.50
2023-02-16T15:17:34.378Z,12.50
2023-02-16T15:20:11.278Z,12.50
2023-02-16T15:22:44.315Z,12.60
2023-02-16T15:25:26.158Z,12.60
2023-02-16T15:28:04.332Z,12.60
2023-02-16T15:30:34.235Z,12.70
2023-02-16T15:33:06.972Z,12.70
2023-02-16T15:35:39.678Z,12.70
2023-02-16T15:38:22.614Z,12.70
2023-02-16T15:40:54.856Z,12.70
2023-02-16T15:43:39.993Z,12.70
2023-02-16T15:46:16.070Z,12.70
2023-02-16T15:48:44.566Z,12.70
2023-02-16T15:51:18.758Z,12.70
2023-02-16T15:53:51.988Z,12.70
2023-02-16T15:56:32.460Z,12.70
2023-02-16T15:59:06.484Z,12.70
2023-02-16T16:01:36.522Z,12.70
2023-02-16T16:04:17.613Z,12.70
2023-02-16T16:06:48.140Z,12.70
2023-02-16T16:09:25.626Z,12.70
2023-02-16T16:11:58.713Z,12.70
2023-02-16T16:14:30.654Z,12.70
2023-02-16T16:16:59.590Z,12.70
2023-02-16T16:19:35.762Z,12.70
2023-02-16T16:22:05.935Z,12.70
2023-02-16T16:24:39.333Z,12.70
2023-02-16T16:27:12.010Z,12.70
2023-02-16T16:29:45.706Z,12.60
2023-02-16T16:32:24.965Z,12.60
2023-02-16T16:34:54.085Z,12.60
2023-02-16T16:37:31.983Z,12.60
2023-02-16T16:40:07.777Z,12.60
2023-02-16T16:42:40.026Z,12.60
2023-02-16T16:45:36.582Z,12.60
2023-02-16T16:48:11.882Z,12.60
2023-02-16T16:50:42.476Z,12.50
2023-02-16T16:53:45.555Z,12.50
2023-02-16T16:56:15.424Z,12.50
2023-02-16T16:58:43.841Z,12.50
2023-02-16T17:01:15.929Z,12.50
2023-02-16T17:03:44.579Z,12.40
2023-02-16T17:06:14.665Z,12.50
2023-02-16T17:08:43.231Z,12.40
2023-02-16T17:11:19.887Z,12.40
2023-02-16T17:13:48.587Z,12.40
2023-02-16T17:16:23.750Z,12.40
2023-02-16T17:18:52.211Z,12.40
2023-02-16T17:21:21.353Z,12.40
2023-02-16T17:23:53.094Z,12.40
2023-02-16T17:26:22.455Z,12.40
2023-02-16T17:28:51.503Z,12.40
2023-02-16T17:31:21.445Z,12.40
2023-02-16T17:33:49.893Z,12.40
2023-02-16T17:36:27.718Z,12.40
2023-02-16T17:38:56.817Z,12.40
2023-02-16T17:41:28.941Z,12.40
2023-02-16T17:43:57.600Z,12.40
2023-02-16T17:46:28.632Z,12.40
2023-02-16T17:48:57.019Z,12.40
2023-02-16T17:51:29.590Z,12.40
2023-02-16T17:53:58.132Z,12.40
2023-02-16T17:56:26.662Z,12.40
2023-02-16T17:58:55.441Z,12.40
2023-02-16T18:01:24.316Z,12.50
2023-02-16T18:03:54.128Z,12.40
2023-02-16T18:06:28.074Z,12.40
2023-02-16T18:08:57.348Z,12.40
2023-02-16T18:11:26.202Z,12.40
2023-02-16T18:13:54.808Z,12.50
2023-02-16T18:16:28.090Z,12.40
2023-02-16T18:18:58.359Z,12.40
2023-02-16T18:21:26.806Z,12.40
2023-02-16T18:23:55.636Z,12.40
2023-02-16T18:26:24.584Z,12.50
2023-02-16T18:28:53.216Z,12.40
2023-02-16T18:31:21.734Z,12.50
2023-02-16T18:33:50.499Z,12.50
2023-02-16T18:36:20.330Z,12.50
2023-02-16T18:38:48.926Z,12.50
2023-02-16T18:41:17.374Z,12.50
2023-02-16T18:43:46.051Z,12.50
2023-02-16T18:46:14.590Z,12.40
2023-02-16T18:48:42.996Z,12.50
2023-02-16T18:51:12.872Z,12.40
2023-02-16T18:53:42.756Z,12.40
2023-02-16T18:56:13.066Z,12.50
2023-02-16T18:58:41.994Z,12.40
2023-02-16T19:01:15.275Z,12.50
2023-02-16T19:03:43.987Z,12.40
2023-02-16T19:06:12.355Z,12.40
2023-02-16T19:08:42.127Z,12.40
2023-02-16T19:11:10.513Z,12.40
2023-02-16T19:13:39.325Z,12.40
2023-02-16T19:16:08.619Z,12.40
2023-02-16T19:18:37.250Z,12.40
2023-02-16T19:21:07.915Z,12.40
2023-02-16T19:23:36.874Z,12.30
2023-02-16T19:26:12.951Z,12.30
2023-02-16T19:28:41.880Z,12.30
2023-02-16T19:31:19.702Z,12.30
2023-02-16T19:33:48.709Z,12.30
2023-02-16T19:36:19.488Z,12.30
2023-02-16T19:38:49.580Z,12.20
2023-02-16T19:41:22.506Z,12.30
2023-02-16T19:43:51.387Z,12.20
2023-02-16T19:46:20.316Z,12.20
2023-02-16T19:48:50.102Z,12.20
2023-02-16T19:51:18.983Z,12.20
2023-02-16T19:53:47.643Z,12.20
2023-02-16T19:56:20.769Z,12.20
2023-02-16T19:58:50.204Z,12.10
2023-02-16T20:01:21.325Z,12.20
2023-02-16T20:03:53.164Z,12.10
2023-02-16T20:06:24.843Z,12.10
2023-02-16T20:08:54.618Z,12.10
2023-02-16T20:11:30.552Z,12.10
2023-02-16T20:14:00.138Z,12.10
2023-02-16T20:16:29.316Z,12.10
2023-02-16T20:19:00.340Z,12.10
2023-02-16T20:21:30.740Z,12.10
2023-02-16T20:24:02.423Z,12.10
2023-02-16T20:26:34.918Z,12.10
2023-02-16T20:29:04.019Z,12.10
2023-02-16T20:31:36.308Z,12.10
2023-02-16T20:34:05.263Z,12.10
2023-02-16T20:36:34.779Z,12.10
2023-02-16T20:39:04.656Z,12.10
2023-02-16T20:41:34.801Z,12.10
2023-02-16T20:44:03.931Z,12.00
2023-02-16T20:46:32.921Z,12.00
2023-02-16T20:49:01.449Z,12.00
2023-02-16T20:51:30.533Z,12.00
2023-02-16T20:54:00.490Z,12.00
2023-02-16T20:56:30.385Z,12.00
2023-02-16T20:59:01.491Z,12.00
2023-02-16T21:01:33.277Z,12.00
2023-02-16T21:04:02.064Z,12.00
2023-02-16T21:06:30.669Z,12.00
2023-02-16T21:08:59.274Z,12.00
2023-02-16T21:11:28.397Z,12.00
2023-02-16T21:13:57.688Z,12.00
2023-02-16T21:16:27.704Z,12.00
2023-02-16T21:18:56.492Z,11.90
2023-02-16T21:21:25.544Z,12.00
2023-02-16T21:23:55.747Z,12.00
2023-02-16T21:26:26.495Z,12.00
2023-02-16T21:28:55.387Z,12.00
2023-02-16T21:31:27.401Z,12.00
2023-02-16T21:33:56.368Z,11.90
2023-02-16T21:36:27.302Z,11.90
2023-02-16T21:38:56.496Z,12.00
2023-02-16T21:41:29.014Z,12.00
2023-02-16T21:44:01.689Z,12.00
2023-02-16T21:46:33.853Z,11.90
2023-02-16T21:49:01.983Z,12.00
2023-02-16T21:51:32.768Z,11.90
2023-02-16T21:54:01.860Z,11.90
2023-02-16T21:56:34.938Z,12.00
2023-02-16T21:59:05.084Z,11.90
2023-02-16T22:01:39.019Z,12.00
2023-02-16T22:04:07.863Z,11.90
2023-02-16T22:06:39.622Z,11.90
2023-02-16T22:09:14.192Z,11.90
2023-02-16T22:11:43.097Z,12.00
2023-02-16T22:14:12.378Z,11.90
2023-02-16T22:16:42.372Z,11.90
2023-02-16T22:19:14.555Z,12.00
2023-02-16T22:21:47.093Z,11.90
2023-02-16T22:24:17.492Z,11.90
2023-02-16T22:26:47.608Z,11.90
2023-02-16T22:29:16.245Z,11.90
2023-02-16T22:31:48.215Z,11.90
2023-02-16T22:34:19.891Z,12.00
2023-02-16T22:36:48.469Z,11.90
2023-02-16T22:39:18.354Z,11.90
2023-02-16T22:41:47.021Z,11.90
2023-02-16T22:44:15.984Z,11.90
2023-02-16T22:46:45.827Z,11.90
2023-02-16T22:49:14.242Z,12.00
2023-02-16T22:51:42.758Z,12.00
2023-02-16T22:54:14.289Z,11.90
2023-02-16T22:56:43.089Z,11.90
2023-02-16T22:59:12.658Z,12.00
2023-02-16T23:01:41.100Z,12.00
2023-02-16T23:04:16.360Z,11.90
2023-02-16T23:06:46.304Z,11.90
2023-02-16T23:09:19.645Z,12.00
2023-02-16T23:11:49.511Z,11.90
2023-02-16T23:14:19.425Z,11.90
2023-02-16T23:16:50.416Z,11.90
2023-02-16T23:19:24.030Z,11.90
2023-02-16T23:21:52.997Z,11.90
2023-02-16T23:24:24.413Z,11.90
2023-02-16T23:26:53.449Z,12.00
2023-02-16T23:29:22.179Z,11.90
2023-02-16T23:31:50.973Z,12.00
2023-02-16T23:34:21.871Z,11.90
2023-02-16T23:36:50.799Z,12.00
2023-02-16T23:39:20.061Z,12.00
2023-02-16T23:41:48.376Z,12.00
2023-02-16T23:44:16.831Z,12.00
2023-02-16T23:46:45.317Z,12.00
2023-02-16T23:49:14.050Z,12.00
2023-02-16T23:51:44.145Z,12.00
2023-02-16T23:54:12.577Z,12.00
2023-02-16T23:56:41.475Z,12.00
2023-02-16T23:59:09.941Z,12.00
